Time;durP1;ratioP1;P1;durP2;ratioP2;P2;SDS_P1;SDS_P2;PMS_P1;PMS_P2;Temp;Humidity;BMP_temperature;BMP_pressure;BME280_temperature;BME280_humidity;BME280_pressure;Samples;Min_cycle;Max_cycle;Signal;HPM_P1;HPM_P2
2024/04/15 00:01:03;;;;;;;0.50;0.50;;;;;;;;;;5429103;26;20310;-75
2024/04/15 00:03:30;;;;;;;0.40;0.40;;;;;;;;;;5425973;26;20259;-73
2024/04/15 00:05:57;;;;;;;0.60;0.60;;;;;;;;;;5430164;26;20256;-75
2024/04/15 00:08:24;;;;;;;0.50;0.50;;;;;;;;;;5425912;26;20590;-74
2024/04/15 00:10:50;;;;;;;1.48;1.40;;;;;;;;;;5424647;26;20318;-75
2024/04/15 00:13:17;;;;;;;0.30;0.30;;;;;;;;;;5419883;26;20283;-74
2024/04/15 00:15:54;;;;;;;0.52;0.52;;;;;;;;;;5419353;26;20298;-74
2024/04/15 00:18:21;;;;;;;0.40;0.40;;;;;;;;;;5421800;26;20260;-74
2024/04/15 00:20:48;;;;;;;0.40;0.40;;;;;;;;;;5416964;26;20291;-74
2024/04/15 00:23:14;;;;;;;0.30;0.30;;;;;;;;;;5419207;26;20332;-74
2024/04/15 00:25:41;;;;;;;0.40;0.40;;;;;;;;;;5419677;26;20287;-74
2024/04/15 00:28:07;;;;;;;0.60;0.60;;;;;;;;;;5417787;26;20688;-74
2024/04/15 00:30:34;;;;;;;0.50;0.50;;;;;;;;;;5425143;26;20252;-74
2024/04/15 00:33:03;;;;;;;0.40;0.40;;;;;;;;;;5422810;26;20302;-74
2024/04/15 00:35:30;;;;;;;0.30;0.30;;;;;;;;;;5428396;26;20256;-74
2024/04/15 00:37:58;;;;;;;0.63;0.60;;;;;;;;;;5420537;26;20326;-74
2024/04/15 00:40:25;;;;;;;0.30;0.30;;;;;;;;;;5416489;26;20315;-76
2024/04/15 00:42:56;;;;;;;0.77;0.77;;;;;;;;;;5421111;26;20301;-75
2024/04/15 00:45:31;;;;;;;0.30;0.30;;;;;;;;;;5416320;26;20260;-75
2024/04/15 00:47:58;;;;;;;0.30;0.30;;;;;;;;;;5419231;26;20320;-74
2024/04/15 00:50:29;;;;;;;0.40;0.40;;;;;;;;;;5418070;26;20734;-75
2024/04/15 00:52:56;;;;;;;0.30;0.30;;;;;;;;;;5419885;26;20323;-74
2024/04/15 00:55:24;;;;;;;0.30;0.30;;;;;;;;;;5419717;26;20862;-75
2024/04/15 00:57:53;;;;;;;0.40;0.40;;;;;;;;;;5421672;26;20311;-74
2024/04/15 01:00:20;;;;;;;0.30;0.30;;;;;;;;;;5418276;26;20289;-75
2024/04/15 01:02:48;;;;;;;0.50;0.50;;;;;;;;;;5422926;26;20856;-75
2024/04/15 01:05:14;;;;;;;0.77;0.77;;;;;;;;;;5421670;26;20307;-75
2024/04/15 01:07:41;;;;;;;0.30;0.30;;;;;;;;;;5427749;26;20293;-74
2024/04/15 01:10:07;;;;;;;0.40;0.40;;;;;;;;;;5429552;26;20312;-75
2024/04/15 01:12:35;;;;;;;0.40;0.40;;;;;;;;;;5420595;26;20371;-74
2024/04/15 01:15:01;;;;;;;0.50;0.50;;;;;;;;;;5417762;26;20721;-74
2024/04/15 01:17:28;;;;;;;0.40;0.40;;;;;;;;;;5419314;26;20290;-75
2024/04/15 01:19:59;;;;;;;0.40;0.40;;;;;;;;;;5420135;26;20303;-74
2024/04/15 01:22:32;;;;;;;0.70;0.70;;;;;;;;;;5420827;26;20256;-75
2024/04/15 01:25:02;;;;;;;0.30;0.30;;;;;;;;;;5417478;26;20331;-74
2024/04/15 01:27:31;;;;;;;0.50;0.50;;;;;;;;;;5427732;26;20336;-74
2024/04/15 01:30:00;;;;;;;0.77;0.77;;;;;;;;;;5423020;26;20668;-74
2024/04/15 01:32:26;;;;;;;0.40;0.40;;;;;;;;;;5420173;26;20263;-75
2024/04/15 01:34:53;;;;;;;0.82;0.82;;;;;;;;;;5426582;26;20273;-74
2024/04/15 01:37:20;;;;;;;0.40;0.40;;;;;;;;;;5422473;26;20307;-74
2024/04/15 01:39:46;;;;;;;0.32;0.32;;;;;;;;;;5427599;26;20352;-74
2024/04/15 01:42:13;;;;;;;0.40;0.40;;;;;;;;;;5420428;26;20360;-75
2024/04/15 01:44:39;;;;;;;0.57;0.57;;;;;;;;;;5429720;26;20335;-75
2024/04/15 01:47:06;;;;;;;0.40;0.40;;;;;;;;;;5430701;26;20328;-74
2024/04/15 01:49:32;;;;;;;0.40;0.40;;;;;;;;;;5430563;26;20256;-74
2024/04/15 01:52:05;;;;;;;0.40;0.40;;;;;;;;;;5430545;26;20303;-74
2024/04/15 01:54:31;;;;;;;0.40;0.40;;;;;;;;;;5429255;26;20275;-74
2024/04/15 01:57:03;;;;;;;1.55;1.45;;;;;;;;;;5429161;26;20622;-74
2024/04/15 01:59:29;;;;;;;0.82;0.70;;;;;;;;;;5430971;26;20264;-74
2024/04/15 02:02:01;;;;;;;0.52;0.52;;;;;;;;;;5430917;26;20328;-74
2024/04/15 02:04:27;;;;;;;0.32;0.32;;;;;;;;;;5430256;26;20287;-75
2024/04/15 02:06:54;;;;;;;0.52;0.52;;;;;;;;;;5429662;26;20260;-74
2024/04/15 02:09:21;;;;;;;0.40;0.40;;;;;;;;;;5425211;26;20337;-74
2024/04/15 02:11:48;;;;;;;0.40;0.40;;;;;;;;;;5429690;26;20721;-74
2024/04/15 02:14:14;;;;;;;0.32;0.32;;;;;;;;;;5429906;26;20784;-74
2024/04/15 02:16:41;;;;;;;0.30;0.30;;;;;;;;;;5427809;26;20624;-75
2024/04/15 02:19:07;;;;;;;0.55;0.55;;;;;;;;;;5432422;26;20260;-75
2024/04/15 02:21:34;;;;;;;0.40;0.40;;;;;;;;;;5431683;26;20256;-74
2024/04/15 02:24:01;;;;;;;0.60;0.60;;;;;;;;;;5427024;26;20255;-75
2024/04/15 02:26:27;;;;;;;0.47;0.47;;;;;;;;;;5422261;26;20286;-74
2024/04/15 02:28:54;;;;;;;0.35;0.35;;;;;;;;;;5426097;26;20257;-74
2024/04/15 02:31:20;;;;;;;0.50;0.50;;;;;;;;;;5423272;26;21013;-73
2024/04/15 02:33:47;;;;;;;1.25;0.65;;;;;;;;;;5422814;26;20363;-73
2024/04/15 02:36:14;;;;;;;0.68;0.68;;;;;;;;;;5435812;26;20255;-74
2024/04/15 02:38:40;;;;;;;0.40;0.40;;;;;;;;;;5422065;26;20282;-74
2024/04/15 02:41:07;;;;;;;0.40;0.40;;;;;;;;;;5422679;26;20696;-75
2024/04/15 02:43:33;;;;;;;0.35;0.35;;;;;;;;;;5425199;26;20268;-74
2024/04/15 02:46:00;;;;;;;0.80;0.80;;;;;;;;;;5422233;26;20289;-74
2024/04/15 02:48:26;;;;;;;0.50;0.50;;;;;;;;;;5419392;26;20291;-77
2024/04/15 02:50:53;;;;;;;0.30;0.30;;;;;;;;;;5426252;26;20554;-74
2024/04/15 02:53:20;;;;;;;0.30;0.30;;;;;;;;;;5426383;26;20290;-74
2024/04/15 02:55:47;;;;;;;0.60;0.60;;;;;;;;;;5426603;26;20267;-74
2024/04/15 02:58:14;;;;;;;0.63;0.63;;;;;;;;;;5426189;26;20290;-74
2024/04/15 03:00:40;;;;;;;0.45;0.45;;;;;;;;;;5433182;26;20946;-76
2024/04/15 03:03:07;;;;;;;0.35;0.35;;;;;;;;;;5423439;26;20372;-74
2024/04/15 03:05:45;;;;;;;0.40;0.40;;;;;;;;;;5420485;26;20263;-73
2024/04/15 03:08:12;;;;;;;0.50;0.50;;;;;;;;;;5457011;26;20283;-74
2024/04/15 03:10:39;;;;;;;0.30;0.30;;;;;;;;;;5429285;26;20287;-74
2024/04/15 03:13:05;;;;;;;0.30;0.30;;;;;;;;;;5429441;26;20256;-74
2024/04/15 03:15:32;;;;;;;0.47;0.47;;;;;;;;;;5428034;26;22386;-74
2024/04/15 03:18:02;;;;;;;0.30;0.30;;;;;;;;;;5428716;26;20337;-74
2024/04/15 03:20:29;;;;;;;0.60;0.60;;;;;;;;;;5428097;26;20263;-73
2024/04/15 03:23:19;;;;;;;1.48;1.40;;;;;;;;;;5429535;26;20295;-75
2024/04/15 03:25:46;;;;;;;0.30;0.30;;;;;;;;;;5425720;26;20312;-76
2024/04/15 03:28:12;;;;;;;0.20;0.20;;;;;;;;;;5424365;26;20311;-75
2024/04/15 03:30:39;;;;;;;0.68;0.68;;;;;;;;;;5438023;26;20247;-76
2024/04/15 03:33:06;;;;;;;0.30;0.30;;;;;;;;;;5426750;26;20260;-76
2024/04/15 03:35:56;;;;;;;0.40;0.40;;;;;;;;;;5427021;26;20344;-76
2024/04/15 03:38:46;;;;;;;0.40;0.40;;;;;;;;;;5429400;26;20797;-76
2024/04/15 03:41:37;;;;;;;1.83;1.67;;;;;;;;;;5410883;26;20312;-77
2024/04/15 03:44:29;;;;;;;0.30;0.30;;;;;;;;;;5393167;26;20359;-75
2024/04/15 03:47:20;;;;;;;0.47;0.47;;;;;;;;;;5398068;26;20300;-74
2024/04/15 03:49:48;;;;;;;0.30;0.30;;;;;;;;;;5393276;26;20258;-74
2024/04/15 03:52:38;;;;;;;0.52;0.52;;;;;;;;;;5393082;26;20304;-75
2024/04/15 03:55:29;;;;;;;0.30;0.30;;;;;;;;;;5394433;26;20346;-74
2024/04/15 04:35:45;;;;;;;0.30;0.30;;;;;;;;;;5431444;26;20294;-74
2024/04/15 04:38:11;;;;;;;0.40;0.40;;;;;;;;;;5426945;26;20295;-75
2024/04/15 04:40:38;;;;;;;0.40;0.40;;;;;;;;;;5424382;26;20248;-75
2024/04/15 04:43:04;;;;;;;0.40;0.40;;;;;;;;;;5423132;26;20323;-75
2024/04/15 04:45:55;;;;;;;0.80;0.80;;;;;;;;;;5430561;26;20286;-75
2024/04/15 04:48:45;;;;;;;0.50;0.50;;;;;;;;;;5431139;26;20351;-74
2024/04/15 04:51:36;;;;;;;0.30;0.30;;;;;;;;;;5429260;26;20291;-74
2024/04/15 04:54:27;;;;;;;0.40;0.40;;;;;;;;;;5433302;26;20290;-75
2024/04/15 04:57:18;;;;;;;0.40;0.40;;;;;;;;;;5438134;26;20294;-75
2024/04/15 05:00:09;;;;;;;0.50;0.50;;;;;;;;;;5431698;26;20303;-75
2024/04/15 05:02:59;;;;;;;0.30;0.30;;;;;;;;;;5431963;26;20289;-74
2024/04/15 05:05:49;;;;;;;0.30;0.30;;;;;;;;;;5428805;26;20375;-76
2024/04/15 05:08:40;;;;;;;0.52;0.45;;;;;;;;;;5426561;26;21088;-75
2024/04/15 05:11:31;;;;;;;0.60;0.60;;;;;;;;;;5431173;26;20850;-75
2024/04/15 05:18:59;;;;;;;0.30;0.30;;;;;;;;;;5403655;21;20361;-75
2024/04/15 05:22:40;;;;;;;0.50;0.50;;;;;;;;;;5408715;26;20287;-78
2024/04/15 05:25:41;;;;;;;0.30;0.30;;;;;;;;;;5416627;21;20368;-75
2024/04/15 05:28:10;;;;;;;0.40;0.40;;;;;;;;;;5323866;26;21391;-79
2024/04/15 05:30:42;;;;;;;0.50;0.50;;;;;;;;;;5386334;26;20332;-80
2024/04/15 05:33:15;;;;;;;1.13;0.55;;;;;;;;;;5364879;26;20722;-80
2024/04/15 05:35:47;;;;;;;0.80;0.80;;;;;;;;;;5352344;26;20272;-81
2024/04/15 05:38:38;;;;;;;0.32;0.32;;;;;;;;;;5368166;26;20607;-80
2024/04/15 05:41:29;;;;;;;0.50;0.50;;;;;;;;;;5330587;26;20278;-80
2024/04/15 05:44:30;;;;;;;0.77;0.73;;;;;;;;;;5365185;26;20265;-80
2024/04/15 05:47:11;;;;;;;0.40;0.40;;;;;;;;;;5343362;26;20308;-79
2024/04/15 05:50:27;;;;;;;0.50;0.50;;;;;;;;;;5385305;26;20292;-79
2024/04/15 05:53:41;;;;;;;0.68;0.68;;;;;;;;;;5398354;26;20337;-80
2024/04/15 05:56:48;;;;;;;0.30;0.30;;;;;;;;;;5398488;26;22023;-79
2024/04/15 06:00:07;;;;;;;0.40;0.40;;;;;;;;;;5407608;26;20305;-78
2024/04/15 06:03:14;;;;;;;0.30;0.30;;;;;;;;;;5399887;26;20257;-78
2024/04/15 06:06:41;;;;;;;0.70;0.70;;;;;;;;;;5373949;26;20248;-78
2024/04/15 06:09:32;;;;;;;0.30;0.30;;;;;;;;;;5288301;26;20293;-77
2024/04/15 06:12:56;;;;;;;0.57;0.57;;;;;;;;;;5412694;26;20306;-79
2024/04/15 06:15:53;;;;;;;0.40;0.40;;;;;;;;;;5341085;26;20297;-79
2024/04/15 06:18:50;;;;;;;0.35;0.35;;;;;;;;;;5386165;26;20252;-80
2024/04/15 06:22:03;;;;;;;0.30;0.30;;;;;;;;;;5327081;26;20743;-79
2024/04/15 06:25:09;;;;;;;0.30;0.30;;;;;;;;;;5371628;26;20307;-79
2024/04/15 06:28:04;;;;;;;0.50;0.50;;;;;;;;;;5384954;26;20810;-78
2024/04/15 06:31:00;;;;;;;0.73;0.70;;;;;;;;;;5394329;26;20588;-81
2024/04/15 06:33:43;;;;;;;0.40;0.40;;;;;;;;;;5366414;26;20669;-78
2024/04/15 06:37:13;;;;;;;0.40;0.40;;;;;;;;;;5406036;25;20298;-83
2024/04/15 06:40:00;;;;;;;0.73;0.73;;;;;;;;;;5369103;26;20261;-78
2024/04/15 06:42:47;;;;;;;0.45;0.45;;;;;;;;;;5320483;26;20383;-82
2024/04/15 06:45:26;;;;;;;0.40;0.40;;;;;;;;;;5386956;26;20287;-78
2024/04/15 06:48:05;;;;;;;0.93;0.52;;;;;;;;;;5377908;26;20296;-78
2024/04/15 06:51:27;;;;;;;0.40;0.40;;;;;;;;;;5372213;25;20303;-80
2024/04/15 06:54:42;;;;;;;0.40;0.40;;;;;;;;;;5333006;26;20307;-78
2024/04/15 06:57:17;;;;;;;1.17;0.70;;;;;;;;;;5368010;26;20316;-77
2024/04/15 06:59:49;;;;;;;0.40;0.40;;;;;;;;;;5339926;26;20302;-78
2024/04/15 07:03:13;;;;;;;0.70;0.60;;;;;;;;;;5395453;26;20251;-78
2024/04/15 07:06:02;;;;;;;0.50;0.50;;;;;;;;;;5367800;26;20317;-78
2024/04/15 07:09:39;;;;;;;0.43;0.43;;;;;;;;;;5353204;26;20256;-81
2024/04/15 07:13:03;;;;;;;0.40;0.40;;;;;;;;;;5385555;26;20312;-78
2024/04/15 07:15:50;;;;;;;0.50;0.50;;;;;;;;;;5363601;26;20264;-78
2024/04/15 07:18:22;;;;;;;0.52;0.52;;;;;;;;;;5369606;26;20662;-77
2024/04/15 07:20:51;;;;;;;0.32;0.32;;;;;;;;;;5358662;26;20345;-78
2024/04/15 07:23:27;;;;;;;0.70;0.70;;;;;;;;;;5392387;26;20304;-78
2024/04/15 07:26:12;;;;;;;0.45;0.45;;;;;;;;;;5385198;26;20264;-80
2024/04/15 07:28:55;;;;;;;0.82;0.82;;;;;;;;;;5371113;26;20272;-79
2024/04/15 07:32:12;;;;;;;1.25;1.25;;;;;;;;;;5348254;26;20269;-76
2024/04/15 07:35:21;;;;;;;0.43;0.43;;;;;;;;;;5405052;25;20296;-75
2024/04/15 07:38:27;;;;;;;1.30;0.95;;;;;;;;;;5403352;26;20674;-75
2024/04/15 07:41:35;;;;;;;0.40;0.40;;;;;;;;;;5368588;26;20253;-75
2024/04/15 07:44:51;;;;;;;0.50;0.50;;;;;;;;;;5380854;26;20264;-75
2024/04/15 07:48:00;;;;;;;0.40;0.40;;;;;;;;;;5208311;27;20261;-75
2024/04/15 07:51:22;;;;;;;0.30;0.30;;;;;;;;;;5346726;26;20358;-75
2024/04/15 07:54:17;;;;;;;0.40;0.40;;;;;;;;;;5373087;26;20256;-75
2024/04/15 07:57:02;;;;;;;0.65;0.63;;;;;;;;;;5359189;26;20264;-75
2024/04/15 08:00:00;;;;;;;0.50;0.50;;;;;;;;;;5402544;26;20256;-75
2024/04/15 08:03:05;;;;;;;0.30;0.30;;;;;;;;;;5408293;26;20263;-76
2024/04/15 08:06:13;;;;;;;0.40;0.40;;;;;;;;;;5371850;26;20287;-76
2024/04/15 08:09:50;;;;;;;0.40;0.40;;;;;;;;;;5361496;26;20329;-76
2024/04/15 08:12:49;;;;;;;0.60;0.60;;;;;;;;;;5393388;26;20256;-76
2024/04/15 08:16:06;;;;;;;0.38;0.38;;;;;;;;;;5418604;26;20343;-78
2024/04/15 08:19:32;;;;;;;0.57;0.57;;;;;;;;;;5391031;26;20357;-76
2024/04/15 08:22:27;;;;;;;0.45;0.45;;;;;;;;;;5394878;26;20256;-76
2024/04/15 08:25:54;;;;;;;0.40;0.40;;;;;;;;;;5396718;25;20352;-76
2024/04/15 08:29:22;;;;;;;0.30;0.30;;;;;;;;;;5409208;26;20260;-76
2024/04/15 08:32:11;;;;;;;0.80;0.80;;;;;;;;;;5361355;26;20260;-76
2024/04/15 08:35:07;;;;;;;0.30;0.30;;;;;;;;;;5282641;26;20273;-77
2024/04/15 08:37:36;;;;;;;0.40;0.40;;;;;;;;;;5361765;26;20959;-76
2024/04/15 08:41:08;;;;;;;0.40;0.40;;;;;;;;;;5421528;26;20600;-76
2024/04/15 08:43:43;;;;;;;0.40;0.40;;;;;;;;;;5401892;26;20295;-75
2024/04/15 08:46:21;;;;;;;0.22;0.22;;;;;;;;;;5398118;26;20260;-76
2024/04/15 08:48:52;;;;;;;0.30;0.30;;;;;;;;;;5430789;26;20324;-77
2024/04/15 08:51:26;;;;;;;1.05;0.98;;;;;;;;;;5372424;26;20311;-76
2024/04/15 08:53:57;;;;;;;0.65;0.65;;;;;;;;;;5345131;26;20378;-76
2024/04/15 08:56:33;;;;;;;0.40;0.40;;;;;;;;;;5403048;26;20260;-76
2024/04/15 08:59:16;;;;;;;0.30;0.30;;;;;;;;;;5391914;26;20258;-82
2024/04/15 09:01:47;;;;;;;0.30;0.30;;;;;;;;;;5378894;26;20268;-78
2024/04/15 09:04:23;;;;;;;0.50;0.50;;;;;;;;;;5369985;26;20328;-80
2024/04/15 09:07:35;;;;;;;0.40;0.40;;;;;;;;;;5412868;26;20684;-79
2024/04/15 09:10:57;;;;;;;0.30;0.30;;;;;;;;;;5399893;26;21031;-78
2024/04/15 09:14:40;;;;;;;2.72;1.92;;;;;;;;;;5372412;26;20256;-76
2024/04/15 09:17:38;;;;;;;0.40;0.40;;;;;;;;;;5398176;26;20369;-76
2024/04/15 09:21:13;;;;;;;0.47;0.47;;;;;;;;;;5374101;26;20257;-76
2024/04/15 09:24:01;;;;;;;0.30;0.30;;;;;;;;;;5348936;26;20266;-75
2024/04/15 09:26:37;;;;;;;0.43;0.43;;;;;;;;;;5390793;26;20292;-76
2024/04/15 09:29:35;;;;;;;0.90;0.73;;;;;;;;;;5407146;26;20296;-77
2024/04/15 09:32:16;;;;;;;0.40;0.40;;;;;;;;;;5356782;26;20261;-76
2024/04/15 09:35:03;;;;;;;0.68;0.68;;;;;;;;;;5381871;26;20313;-76
2024/04/15 09:37:44;;;;;;;0.50;0.50;;;;;;;;;;5403537;26;20305;-76
2024/04/15 09:40:30;;;;;;;0.40;0.40;;;;;;;;;;5415841;26;20276;-78
2024/04/15 09:43:04;;;;;;;0.52;0.52;;;;;;;;;;5365283;26;20292;-76
2024/04/15 09:45:52;;;;;;;0.30;0.30;;;;;;;;;;5380408;26;20747;-74
2024/04/15 09:48:49;;;;;;;0.30;0.30;;;;;;;;;;5391133;26;20799;-74
2024/04/15 09:51:33;;;;;;;1.00;1.00;;;;;;;;;;5413166;26;20257;-74
2024/04/15 09:54:27;;;;;;;0.60;0.60;;;;;;;;;;5378457;26;20267;-75
2024/04/15 09:57:18;;;;;;;0.68;0.63;;;;;;;;;;5386565;26;20308;-75
2024/04/15 10:00:02;;;;;;;0.40;0.40;;;;;;;;;;5394638;26;20272;-75
2024/04/15 10:03:18;;;;;;;0.35;0.35;;;;;;;;;;5384357;25;20325;-75
2024/04/15 10:05:55;;;;;;;0.60;0.60;;;;;;;;;;5390194;26;20742;-75
2024/04/15 10:08:28;;;;;;;0.60;0.60;;;;;;;;;;5389740;25;20806;-75
2024/04/15 10:11:07;;;;;;;0.50;0.50;;;;;;;;;;5362698;26;20277;-75
2024/04/15 10:13:42;;;;;;;0.82;0.82;;;;;;;;;;5359672;26;20307;-75
2024/04/15 10:16:37;;;;;;;0.50;0.50;;;;;;;;;;5363461;26;20266;-74
2024/04/15 10:19:10;;;;;;;0.50;0.50;;;;;;;;;;5380322;26;20342;-75
2024/04/15 10:22:09;;;;;;;1.17;0.68;;;;;;;;;;5386079;25;20727;-75
2024/04/15 10:24:42;;;;;;;0.40;0.40;;;;;;;;;;5351265;26;20267;-74
2024/04/15 10:27:27;;;;;;;1.63;0.82;;;;;;;;;;5368285;25;20429;-75
2024/04/15 10:30:18;;;;;;;0.40;0.40;;;;;;;;;;5358382;26;20288;-76
2024/04/15 10:32:54;;;;;;;0.50;0.50;;;;;;;;;;5339272;26;20695;-73
2024/04/15 10:35:33;;;;;;;0.55;0.55;;;;;;;;;;5390859;26;20253;-74
2024/04/15 10:38:09;;;;;;;0.85;0.85;;;;;;;;;;5356736;26;20346;-73
2024/04/15 10:40:54;;;;;;;1.30;1.20;;;;;;;;;;5350007;26;20337;-74
2024/04/15 10:43:29;;;;;;;0.70;0.70;;;;;;;;;;5384894;26;20249;-73
2024/04/15 10:46:05;;;;;;;0.52;0.52;;;;;;;;;;5389390;25;20783;-73
2024/04/15 10:48:41;;;;;;;0.68;0.68;;;;;;;;;;5376079;26;20256;-73
2024/04/15 10:51:23;;;;;;;0.45;0.45;;;;;;;;;;5371947;26;20743;-73
2024/04/15 10:54:17;;;;;;;0.50;0.50;;;;;;;;;;5368995;26;20674;-73
2024/04/15 10:56:59;;;;;;;0.30;0.30;;;;;;;;;;5353197;26;20277;-75
2024/04/15 10:59:54;;;;;;;1.02;1.02;;;;;;;;;;5392148;26;20853;-75
2024/04/15 11:02:34;;;;;;;0.35;0.35;;;;;;;;;;5352546;26;20305;-74
2024/04/15 11:05:21;;;;;;;0.40;0.40;;;;;;;;;;5371146;26;20729;-75
2024/04/15 11:07:53;;;;;;;1.20;0.60;;;;;;;;;;5331445;26;20707;-76
2024/04/15 11:10:29;;;;;;;0.68;0.68;;;;;;;;;;5344538;26;20303;-75
2024/04/15 11:13:16;;;;;;;0.47;0.47;;;;;;;;;;5353535;26;20260;-74
2024/04/15 11:16:00;;;;;;;0.52;0.52;;;;;;;;;;5368705;26;20254;-74
2024/04/15 11:18:53;;;;;;;0.40;0.40;;;;;;;;;;5370947;26;20268;-74
2024/04/15 11:21:56;;;;;;;0.50;0.50;;;;;;;;;;5385830;26;20772;-74
2024/04/15 11:25:16;;;;;;;0.80;0.80;;;;;;;;;;5378179;26;20312;-73
2024/04/15 11:28:40;;;;;;;2.75;1.55;;;;;;;;;;5350400;26;20303;-73
2024/04/15 11:31:52;;;;;;;0.85;0.85;;;;;;;;;;5312230;26;20605;-74
2024/04/15 11:34:46;;;;;;;0.75;0.75;;;;;;;;;;5394146;26;20264;-74
2024/04/15 11:37:52;;;;;;;0.88;0.88;;;;;;;;;;5373321;26;20911;-74
2024/04/15 11:40:44;;;;;;;0.85;0.68;;;;;;;;;;5384412;26;20299;-74
2024/04/15 11:44:00;;;;;;;0.70;0.70;;;;;;;;;;5355404;26;20258;-74
2024/04/15 11:47:14;;;;;;;1.20;1.20;;;;;;;;;;5188141;27;20286;-74
2024/04/15 11:50:04;;;;;;;1.00;1.00;;;;;;;;;;5240107;26;20277;-74
2024/04/15 11:52:59;;;;;;;0.73;0.73;;;;;;;;;;5260826;27;20313;-73
2024/04/15 11:56:13;;;;;;;1.02;0.93;;;;;;;;;;5273716;26;20241;-74
2024/04/15 11:59:52;;;;;;;0.57;0.57;;;;;;;;;;5287242;26;20330;-74
2024/04/15 12:07:33;;;;;;;0.77;0.77;;;;;;;;;;5230345;27;20356;-73
2024/04/15 12:11:23;;;;;;;0.40;0.40;;;;;;;;;;5270099;26;20245;-74
2024/04/15 12:14:58;;;;;;;0.73;0.73;;;;;;;;;;5312379;26;20621;-74
2024/04/15 12:18:11;;;;;;;0.40;0.40;;;;;;;;;;5264848;26;20258;-74
2024/04/15 12:21:23;;;;;;;2.92;1.65;;;;;;;;;;5384504;26;20756;-74
2024/04/15 12:24:21;;;;;;;0.68;0.68;;;;;;;;;;5356789;26;20262;-74
2024/04/15 12:27:33;;;;;;;1.15;1.10;;;;;;;;;;5370613;26;20256;-74
2024/04/15 12:30:38;;;;;;;0.50;0.50;;;;;;;;;;5367247;26;20328;-74
2024/04/15 12:33:38;;;;;;;0.73;0.73;;;;;;;;;;5325652;26;20674;-74
2024/04/15 12:36:21;;;;;;;0.82;0.82;;;;;;;;;;5331490;26;20274;-75
2024/04/15 12:38:51;;;;;;;0.73;0.73;;;;;;;;;;5357624;26;20257;-74
2024/04/15 12:41:19;;;;;;;0.82;0.82;;;;;;;;;;5362854;26;20259;-76
2024/04/15 12:43:53;;;;;;;0.82;0.80;;;;;;;;;;5391195;26;20258;-74
2024/04/15 12:46:41;;;;;;;0.85;0.85;;;;;;;;;;5393275;25;20344;-73
2024/04/15 12:49:27;;;;;;;0.50;0.50;;;;;;;;;;5387428;26;20705;-74
2024/04/15 12:52:04;;;;;;;0.60;0.60;;;;;;;;;;5340089;26;20303;-74
2024/04/15 12:54:39;;;;;;;0.90;0.90;;;;;;;;;;5398271;26;20252;-74
2024/04/15 12:57:17;;;;;;;0.75;0.75;;;;;;;;;;5344643;26;20264;-74
2024/04/15 13:00:01;;;;;;;0.50;0.50;;;;;;;;;;5392571;26;20376;-74
2024/04/15 13:02:55;;;;;;;0.57;0.57;;;;;;;;;;5361000;26;20261;-74
2024/04/15 13:05:25;;;;;;;0.80;0.75;;;;;;;;;;5382855;26;20261;-74
2024/04/15 13:07:57;;;;;;;0.60;0.60;;;;;;;;;;5394041;26;20695;-74
2024/04/15 13:10:33;;;;;;;1.15;0.80;;;;;;;;;;5362871;26;20625;-74
2024/04/15 13:13:41;;;;;;;0.43;0.43;;;;;;;;;;5396402;26;20264;-73
2024/04/15 13:16:17;;;;;;;0.43;0.43;;;;;;;;;;5387032;26;20261;-73
2024/04/15 13:19:03;;;;;;;0.90;0.90;;;;;;;;;;5372907;26;20309;-74
2024/04/15 13:21:47;;;;;;;0.77;0.77;;;;;;;;;;5374155;26;20256;-73
2024/04/15 13:24:19;;;;;;;2.15;0.98;;;;;;;;;;5362154;26;20302;-73
2024/04/15 13:26:50;;;;;;;0.50;0.50;;;;;;;;;;5401606;26;20270;-73
2024/04/15 13:29:22;;;;;;;0.70;0.70;;;;;;;;;;5366447;26;20261;-73
2024/04/15 13:31:53;;;;;;;0.45;0.45;;;;;;;;;;5356316;26;20261;-73
2024/04/15 13:34:56;;;;;;;1.75;0.73;;;;;;;;;;5376426;26;20358;-73
2024/04/15 13:37:33;;;;;;;0.50;0.50;;;;;;;;;;5359198;26;20260;-73
2024/04/15 13:40:13;;;;;;;0.70;0.70;;;;;;;;;;5309902;26;20272;-73
2024/04/15 13:42:46;;;;;;;1.00;1.00;;;;;;;;;;5370172;26;20256;-73
2024/04/15 13:45:29;;;;;;;0.40;0.40;;;;;;;;;;5390530;25;20306;-73
2024/04/15 13:48:19;;;;;;;0.35;0.35;;;;;;;;;;5415027;26;20253;-73
2024/04/15 13:51:16;;;;;;;0.60;0.60;;;;;;;;;;5337165;26;20248;-73
2024/04/15 13:54:09;;;;;;;0.73;0.73;;;;;;;;;;5312646;26;20709;-73
2024/04/15 13:56:56;;;;;;;0.63;0.63;;;;;;;;;;5370190;26;20309;-74
2024/04/15 13:59:36;;;;;;;1.00;0.68;;;;;;;;;;5363833;26;20255;-73
2024/04/15 14:02:23;;;;;;;0.50;0.50;;;;;;;;;;5363875;26;20326;-73
2024/04/15 14:05:14;;;;;;;0.40;0.40;;;;;;;;;;5290817;26;20256;-73
2024/04/15 14:07:55;;;;;;;0.68;0.68;;;;;;;;;;5384368;26;20696;-74
2024/04/15 14:10:44;;;;;;;2.17;1.23;;;;;;;;;;5387000;26;20299;-73
2024/04/15 14:14:02;;;;;;;0.68;0.68;;;;;;;;;;5360330;26;20260;-73
2024/04/15 14:17:11;;;;;;;0.60;0.60;;;;;;;;;;5335639;26;20828;-73
2024/04/15 14:20:14;;;;;;;0.50;0.50;;;;;;;;;;5400482;26;20325;-73
2024/04/15 14:23:10;;;;;;;0.60;0.60;;;;;;;;;;5334319;26;20744;-73
2024/04/15 14:26:26;;;;;;;0.70;0.70;;;;;;;;;;5337839;26;20270;-74
2024/04/15 14:29:19;;;;;;;0.50;0.50;;;;;;;;;;5377580;26;20259;-73
2024/04/15 14:32:37;;;;;;;0.43;0.43;;;;;;;;;;5384690;26;20300;-73
2024/04/15 14:35:34;;;;;;;0.63;0.63;;;;;;;;;;5351814;26;20856;-74
2024/04/15 14:38:24;;;;;;;0.30;0.30;;;;;;;;;;5360486;26;20300;-74
2024/04/15 14:41:02;;;;;;;0.50;0.50;;;;;;;;;;5372628;26;20282;-73
2024/04/15 14:43:42;;;;;;;0.40;0.40;;;;;;;;;;5354344;26;21231;-73
2024/04/15 14:46:30;;;;;;;0.95;0.95;;;;;;;;;;5347255;26;20310;-74
2024/04/15 14:50:03;;;;;;;0.63;0.63;;;;;;;;;;5327370;26;20252;-73
2024/04/15 14:53:13;;;;;;;0.50;0.50;;;;;;;;;;5357934;26;20670;-73
2024/04/15 14:59:32;;;;;;;0.60;0.60;;;;;;;;;;5354749;26;20610;-74
2024/04/15 15:02:23;;;;;;;2.40;1.75;;;;;;;;;;5391478;26;20257;-74
2024/04/15 15:05:25;;;;;;;0.35;0.35;;;;;;;;;;5359514;26;20268;-73
2024/04/15 15:07:59;;;;;;;0.50;0.50;;;;;;;;;;5373812;26;20688;-73
2024/04/15 15:10:41;;;;;;;0.47;0.47;;;;;;;;;;5312957;26;20268;-74
2024/04/15 15:13:36;;;;;;;0.40;0.40;;;;;;;;;;5371248;26;20641;-74
2024/04/15 15:16:16;;;;;;;1.05;0.57;;;;;;;;;;5392073;26;20265;-74
2024/04/15 15:19:04;;;;;;;0.40;0.40;;;;;;;;;;5389936;26;20304;-74
2024/04/15 15:21:38;;;;;;;0.30;0.30;;;;;;;;;;5365269;26;20251;-74
2024/04/15 15:24:31;;;;;;;0.80;0.80;;;;;;;;;;5409257;26;20259;-74
2024/04/15 15:27:28;;;;;;;0.30;0.30;;;;;;;;;;5389729;26;20339;-75
2024/04/15 15:30:14;;;;;;;0.95;0.95;;;;;;;;;;5402257;26;20289;-75
2024/04/15 15:32:58;;;;;;;0.70;0.70;;;;;;;;;;5343920;26;21033;-74
2024/04/15 15:36:29;;;;;;;0.60;0.60;;;;;;;;;;5303663;26;21000;-74
2024/04/15 15:39:22;;;;;;;0.40;0.40;;;;;;;;;;5359379;26;20637;-73
2024/04/15 15:42:30;;;;;;;1.67;1.15;;;;;;;;;;5409652;26;20259;-74
2024/04/15 15:45:10;;;;;;;0.52;0.52;;;;;;;;;;5343606;26;20695;-74
2024/04/15 15:48:06;;;;;;;0.47;0.47;;;;;;;;;;5384209;26;20335;-74
2024/04/15 15:51:11;;;;;;;0.75;0.75;;;;;;;;;;5350835;26;20261;-73
2024/04/15 15:53:56;;;;;;;0.40;0.40;;;;;;;;;;5372551;26;20260;-74
2024/04/15 15:56:43;;;;;;;2.75;1.65;;;;;;;;;;5347417;26;20741;-74
2024/04/15 15:59:31;;;;;;;0.77;0.65;;;;;;;;;;5359359;26;20268;-73
2024/04/15 16:02:15;;;;;;;0.40;0.40;;;;;;;;;;5395722;26;20268;-73
2024/04/15 16:05:18;;;;;;;0.40;0.40;;;;;;;;;;5392542;26;20768;-74
2024/04/15 16:07:54;;;;;;;0.40;0.40;;;;;;;;;;5391045;26;20744;-73
2024/04/15 16:10:32;;;;;;;0.30;0.30;;;;;;;;;;5371721;26;20354;-73
2024/04/15 16:13:04;;;;;;;0.30;0.30;;;;;;;;;;5362123;25;20260;-73
2024/04/15 16:16:10;;;;;;;0.85;0.85;;;;;;;;;;5377403;26;20300;-72
2024/04/15 16:18:46;;;;;;;1.02;0.65;;;;;;;;;;5406361;26;20252;-80
2024/04/15 16:21:25;;;;;;;0.95;0.95;;;;;;;;;;5361217;26;20266;-79
2024/04/15 16:24:11;;;;;;;2.15;0.95;;;;;;;;;;5402215;26;20257;-73
2024/04/15 16:27:15;;;;;;;0.40;0.40;;;;;;;;;;5401456;25;20254;-73
2024/04/15 16:30:14;;;;;;;0.40;0.40;;;;;;;;;;5402434;26;20325;-73
2024/04/15 16:33:15;;;;;;;0.40;0.40;;;;;;;;;;5400366;26;20659;-74
2024/04/15 16:36:37;;;;;;;0.30;0.30;;;;;;;;;;5375694;26;20776;-73
2024/04/15 16:39:40;;;;;;;0.40;0.40;;;;;;;;;;5392154;26;20319;-73
2024/04/15 16:42:54;;;;;;;0.55;0.55;;;;;;;;;;5356019;26;20323;-73
2024/04/15 16:45:43;;;;;;;0.68;0.68;;;;;;;;;;5377402;26;20265;-73
2024/04/15 16:48:44;;;;;;;0.85;0.85;;;;;;;;;;5378046;26;20295;-74
2024/04/15 16:52:01;;;;;;;0.40;0.40;;;;;;;;;;5378410;26;20322;-77
2024/04/15 16:54:41;;;;;;;0.80;0.80;;;;;;;;;;5362563;26;20346;-73
2024/04/15 16:57:22;;;;;;;1.50;0.88;;;;;;;;;;5364495;25;20323;-73
2024/04/15 17:00:05;;;;;;;0.40;0.40;;;;;;;;;;5391253;26;20264;-73
2024/04/15 17:02:46;;;;;;;0.45;0.45;;;;;;;;;;5379212;26;20260;-73
2024/04/15 17:05:37;;;;;;;0.40;0.40;;;;;;;;;;5352693;26;20287;-73
2024/04/15 17:08:10;;;;;;;0.40;0.40;;;;;;;;;;5366105;26;20265;-74
2024/04/15 17:10:45;;;;;;;0.30;0.30;;;;;;;;;;5354559;26;20260;-73
2024/04/15 17:13:40;;;;;;;0.30;0.30;;;;;;;;;;5361570;26;20673;-73
2024/04/15 17:16:58;;;;;;;0.32;0.32;;;;;;;;;;5357020;26;20320;-73
2024/04/15 17:19:44;;;;;;;0.40;0.40;;;;;;;;;;5243827;26;20299;-74
2024/04/15 17:22:14;;;;;;;0.30;0.30;;;;;;;;;;5261563;27;20786;-73
2024/04/15 17:25:11;;;;;;;0.85;0.85;;;;;;;;;;5294540;26;20259;-73
2024/04/15 17:28:11;;;;;;;0.45;0.45;;;;;;;;;;5259833;26;20252;-73
2024/04/15 17:31:05;;;;;;;0.40;0.40;;;;;;;;;;5307884;26;20361;-76